Time,TemperatureF,DewpointF,PressureIn,WindDirection,WindDirectionDegrees,WindSpeedMPH,WindSpeedGustMPH,Humidity,HourlyPrecipIn,Conditions,Clouds,dailyrainin,SoftwareType,DateUTC
2013-05-18 00:00:00,46.0,43.0,30.20,West,281,0.0,0.0,89,0.00,,,0.00,VWS V14.01,2013-05-18 04:00:00,
2013-05-18 00:01:00,46.0,43.0,30.20,West,281,0.0,0.0,89,0.00,,,0.00,VWS V14.01,2013-05-18 04:01:00,
2013-05-18 00:02:00,46.0,43.0,30.20,West,281,0.0,0.0,89,0.00,,,0.00,VWS V14.01,2013-05-18 04:02:00,
2013-05-18 00:07:00,46.0,43.0,30.20,West,281,0.0,0.0,89,0.00,,,0.00,VWS V14.01,2013-05-18 04:07:00,
2013-05-18 00:12:00,46.0,43.0,30.20,West,281,0.0,1.0,89,0.00,,,0.00,VWS V14.01,2013-05-18 04:12:00,
2013-05-18 00:17:00,46.1,43.0,30.20,West,281,0.0,1.0,89,0.00,,,0.00,VWS V14.01,2013-05-18 04:17:00,
2013-05-18 00:22:00,46.0,43.0,30.20,West,281,1.0,2.0,89,0.00,,,0.00,VWS V14.01,2013-05-18 04:22:00,
2013-05-18 00:28:00,46.1,43.0,30.20,West,281,1.0,2.0,89,0.00,,,0.00,VWS V14.01,2013-05-18 04:28:00,
2013-05-18 00:30:00,46.1,43.0,30.20,West,281,0.0,2.0,89,0.00,,,0.00,VWS V14.01,2013-05-18 04:30:00,
2013-05-18 00:33:00,46.1,42.8,30.20,West,281,0.0,0.0,88,0.00,,,0.00,VWS V14.01,2013-05-18 04:33:00,
2013-05-18 00:38:00,46.0,42.7,30.20,West,281,0.0,1.0,88,0.00,,,0.00,VWS V14.01,2013-05-18 04:38:00,
2013-05-18 00:43:00,45.9,42.5,30.20,West,281,0.0,1.0,88,0.00,,,0.00,VWS V14.01,2013-05-18 04:43:00,
2013-05-18 00:48:00,45.8,42.8,30.20,West,281,0.0,1.0,89,0.00,,,0.00,VWS V14.01,2013-05-18 04:48:00,
2013-05-18 00:53:00,45.7,42.7,30.20,West,281,0.0,1.0,89,0.00,,,0.00,VWS V14.01,2013-05-18 04:53:00,
2013-05-18 00:58:00,45.6,42.5,30.20,West,281,0.0,1.0,89,0.00,,,0.00,VWS V14.01,2013-05-18 04:58:00,
2013-05-18 01:00:00,45.6,42.5,30.21,West,281,0.0,1.0,89,0.00,,,0.00,VWS V14.01,2013-05-18 05:00:00,
2013-05-18 01:03:00,45.4,42.3,30.21,West,281,0.0,0.0,89,0.00,,,0.00,VWS V14.01,2013-05-18 05:03:00,
2013-05-18 01:08:00,45.2,42.2,30.21,West,281,0.0,0.0,89,0.00,,,0.00,VWS V14.01,2013-05-18 05:08:00,
2013-05-18 01:14:00,44.9,42.2,30.21,West,281,0.0,0.0,90,0.00,,,0.00,VWS V14.01,2013-05-18 05:14:00,
2013-05-18 01:19:00,44.5,41.8,30.20,West,281,0.0,0.0,90,0.00,,,0.00,VWS V14.01,2013-05-18 05:19:00,
2013-05-18 01:24:00,44.2,41.5,30.21,West,281,0.0,0.0,90,0.00,,,0.00,VWS V14.01,2013-05-18 05:24:00,
2013-05-18 01:29:00,43.9,41.5,30.21,West,281,0.0,0.0,91,0.00,,,0.00,VWS V14.01,2013-05-18 05:29:00,
2013-05-18 01:30:00,43.8,41.3,30.21,West,281,0.0,0.0,91,0.00,,,0.00,VWS V14.01,2013-05-18 05:30:00,
2013-05-18 01:34:00,43.7,41.5,30.21,West,281,0.0,0.0,92,0.00,,,0.00,VWS V14.01,2013-05-18 05:34:00,
2013-05-18 01:39:00,43.6,41.4,30.21,West,281,0.0,0.0,92,0.00,,,0.00,VWS V14.01,2013-05-18 05:39:00,
2013-05-18 01:44:00,43.6,41.4,30.21,West,281,0.0,0.0,92,0.00,,,0.00,VWS V14.01,2013-05-18 05:44:00,
2013-05-18 01:49:00,43.4,41.5,30.21,West,281,0.0,0.0,93,0.00,,,0.00,VWS V14.01,2013-05-18 05:49:00,
2013-05-18 01:55:00,43.4,41.5,30.21,West,281,0.0,0.0,93,0.00,,,0.00,VWS V14.01,2013-05-18 05:55:00,
2013-05-18 02:00:00,43.4,41.5,30.21,West,281,0.0,0.0,93,0.00,,,0.00,VWS V14.01,2013-05-18 06:00:00,
2013-05-18 02:05:00,43.4,41.5,30.21,West,281,0.0,0.0,93,0.00,,,0.00,VWS V14.01,2013-05-18 06:05:00,
2013-05-18 02:10:00,43.4,41.5,30.21,West,281,0.0,0.0,93,0.00,,,0.00,VWS V14.01,2013-05-18 06:10:00,
2013-05-18 02:15:00,43.4,41.5,30.21,West,281,0.0,0.0,93,0.00,,,0.00,VWS V14.01,2013-05-18 06:15:00,
2013-05-18 02:20:00,43.4,41.5,30.21,West,281,0.0,0.0,93,0.00,,,0.00,VWS V14.01,2013-05-18 06:20:00,
2013-05-18 02:25:00,43.4,41.5,30.21,West,281,0.0,0.0,93,0.00,,,0.00,VWS V14.01,2013-05-18 06:25:00,
2013-05-18 02:30:00,43.3,41.4,30.21,West,281,0.0,0.0,93,0.00,,,0.00,VWS V14.01,2013-05-18 06:30:00,
2013-05-18 02:36:00,43.3,41.4,30.21,West,281,0.0,0.0,93,0.00,,,0.00,VWS V14.01,2013-05-18 06:36:00,
2013-05-18 02:41:00,43.2,41.3,30.21,West,281,0.0,0.0,93,0.00,,,0.00,VWS V14.01,2013-05-18 06:41:00,
2013-05-18 02:46:00,43.1,41.2,30.21,West,281,0.0,0.0,93,0.00,,,0.00,VWS V14.01,2013-05-18 06:46:00,
2013-05-18 02:51:00,43.0,41.1,30.21,West,281,0.0,0.0,93,0.00,,,0.00,VWS V14.01,2013-05-18 06:51:00,
2013-05-18 02:56:00,43.0,41.4,30.21,West,281,0.0,0.0,94,0.00,,,0.00,VWS V14.01,2013-05-18 06:56:00,
2013-05-18 03:00:00,43.0,41.4,30.21,West,281,0.0,0.0,94,0.00,,,0.00,VWS V14.01,2013-05-18 07:00:00,
2013-05-18 03:01:00,43.0,41.4,30.21,West,281,0.0,0.0,94,0.00,,,0.00,VWS V14.01,2013-05-18 07:01:00,
2013-05-18 03:06:00,43.0,41.4,30.21,West,281,0.0,0.0,94,0.00,,,0.00,VWS V14.01,2013-05-18 07:06:00,
2013-05-18 03:11:00,43.1,41.2,30.21,West,281,0.0,0.0,93,0.00,,,0.00,VWS V14.01,2013-05-18 07:11:00,
2013-05-18 03:17:00,43.0,41.1,30.22,West,281,0.0,0.0,93,0.00,,,0.00,VWS V14.01,2013-05-18 07:17:00,
2013-05-18 03:22:00,42.9,41.0,30.22,West,281,0.0,0.0,93,0.00,,,0.00,VWS V14.01,2013-05-18 07:22:00,
2013-05-18 03:27:00,42.7,40.8,30.22,West,281,0.0,0.0,93,0.00,,,0.00,VWS V14.01,2013-05-18 07:27:00,
2013-05-18 03:30:00,42.6,40.7,30.22,West,281,0.0,0.0,93,0.00,,,0.00,VWS V14.01,2013-05-18 07:30:00,
2013-05-18 03:32:00,42.5,40.6,30.22,West,281,0.0,0.0,93,0.00,,,0.00,VWS V14.01,2013-05-18 07:32:00,
2013-05-18 03:37:00,42.3,40.4,30.22,West,281,0.0,0.0,93,0.00,,,0.00,VWS V14.01,2013-05-18 07:37:00,
2013-05-18 03:42:00,42.1,40.2,30.22,West,281,0.0,0.0,93,0.00,,,0.00,VWS V14.01,2013-05-18 07:42:00,
2013-05-18 03:47:00,41.9,40.3,30.23,West,281,0.0,0.0,94,0.00,,,0.00,VWS V14.01,2013-05-18 07:47:00,
2013-05-18 03:52:00,41.8,40.2,30.23,West,281,0.0,0.0,94,0.00,,,0.00,VWS V14.01,2013-05-18 07:52:00,
2013-05-18 03:58:00,41.7,40.1,30.23,West,281,0.0,0.0,94,0.00,,,0.00,VWS V14.01,2013-05-18 07:58:00,
2013-05-18 04:00:00,41.7,40.1,30.23,West,281,0.0,0.0,94,0.00,,,0.00,VWS V14.01,2013-05-18 08:00:00,
2013-05-18 04:03:00,41.6,40.0,30.23,West,281,0.0,0.0,94,0.00,,,0.00,VWS V14.01,2013-05-18 08:03:00,
2013-05-18 04:08:00,41.5,39.9,30.23,West,281,0.0,0.0,94,0.00,,,0.00,VWS V14.01,2013-05-18 08:08:00,
2013-05-18 04:13:00,41.4,40.1,30.23,West,281,0.0,0.0,95,0.00,,,0.00,VWS V14.01,2013-05-18 08:13:00,
2013-05-18 04:18:00,41.3,40.0,30.23,West,281,0.0,0.0,95,0.00,,,0.00,VWS V14.01,2013-05-18 08:18:00,
2013-05-18 04:23:00,41.2,39.9,30.23,West,281,0.0,0.0,95,0.00,,,0.00,VWS V14.01,2013-05-18 08:23:00,
2013-05-18 04:30:00,41.0,39.7,30.23,North,0,0.0,0.0,95,0.00,,,0.00,VWS V14.01,2013-05-18 08:30:00,
2013-05-18 05:00:00,40.9,39.8,30.24,WNW,292,0.0,2.0,96,0.00,,,0.00,VWS V14.01,2013-05-18 09:00:00,
2013-05-18 05:30:00,41.0,40.0,30.25,WNW,292,0.0,2.0,96,0.00,,,0.00,VWS V14.01,2013-05-18 09:30:00,
2013-05-18 06:00:00,41.3,40.2,30.26,WNW,292,0.0,1.0,96,0.00,,,0.00,VWS V14.01,2013-05-18 10:00:00,
2013-05-18 06:30:00,41.8,40.8,30.27,WNW,292,0.0,1.0,96,0.00,,,0.00,VWS V14.01,2013-05-18 10:30:00,
2013-05-18 07:00:00,44.7,42.8,30.27,WNW,292,0.0,1.0,93,0.00,,,0.00,VWS V14.01,2013-05-18 11:00:00,
2013-05-18 07:30:00,47.7,44.9,30.28,WNW,292,0.0,0.0,90,0.00,,,0.00,VWS V14.01,2013-05-18 11:30:00,
2013-05-18 08:00:00,52.3,48.5,30.28,WNW,292,0.0,1.0,87,0.00,,,0.00,VWS V14.01,2013-05-18 12:00:00,
2013-05-18 08:30:00,58.9,50.6,30.28,WNW,292,0.0,1.0,74,0.00,,,0.00,VWS V14.01,2013-05-18 12:30:00,
2013-05-18 09:08:00,61.3,49.0,30.29,SW,221,0.0,0.0,64,0.00,,,0.00,VWS V14.01,2013-05-18 13:08:00,
2013-05-18 09:13:00,61.4,51.2,30.29,SW,221,0.0,0.0,69,0.00,,,0.00,VWS V14.01,2013-05-18 13:13:00,
2013-05-18 09:19:00,61.7,50.6,30.28,SW,221,0.0,0.0,67,0.00,,,0.00,VWS V14.01,2013-05-18 13:19:00,
2013-05-18 09:24:00,61.9,50.0,30.28,SW,221,0.0,1.0,65,0.00,,,0.00,VWS V14.01,2013-05-18 13:24:00,
2013-05-18 09:29:00,62.1,50.2,30.28,SW,221,0.0,1.0,65,0.00,,,0.00,VWS V14.01,2013-05-18 13:29:00,
2013-05-18 09:34:00,62.4,49.2,30.29,SW,221,0.0,2.0,62,0.00,,,0.00,VWS V14.01,2013-05-18 13:34:00,
2013-05-18 09:39:00,62.5,50.6,30.29,SW,221,0.0,2.0,65,0.00,,,0.00,VWS V14.01,2013-05-18 13:39:00,
2013-05-18 09:44:00,62.6,50.3,30.28,South,188,1.0,2.0,64,0.00,,,0.00,VWS V14.01,2013-05-18 13:44:00,
2013-05-18 09:49:00,62.8,50.9,30.29,South,188,0.0,2.0,65,0.00,,,0.00,VWS V14.01,2013-05-18 13:49:00,
2013-05-18 09:55:00,63.1,50.3,30.28,South,188,0.0,2.0,63,0.00,,,0.00,VWS V14.01,2013-05-18 13:55:00,
2013-05-18 10:00:00,63.4,50.6,30.28,South,188,0.0,2.0,63,0.00,,,0.00,VWS V14.01,2013-05-18 14:00:00,
2013-05-18 10:05:00,63.7,50.5,30.28,South,188,1.0,1.0,62,0.00,,,0.00,VWS V14.01,2013-05-18 14:05:00,
2013-05-18 10:10:00,64.0,50.3,30.28,South,188,0.0,1.0,61,0.00,,,0.00,VWS V14.01,2013-05-18 14:10:00,
2013-05-18 10:15:00,64.1,50.0,30.28,ESE,103,0.0,5.0,60,0.00,,,0.00,VWS V14.01,2013-05-18 14:15:00,
2013-05-18 10:20:00,64.5,50.3,30.28,ESE,107,0.0,5.0,60,0.00,,,0.00,VWS V14.01,2013-05-18 14:20:00,
2013-05-18 10:25:00,64.9,52.0,30.28,SSW,192,0.0,5.0,63,0.00,,,0.00,VWS V14.01,2013-05-18 14:25:00,
2013-05-18 10:30:00,65.2,50.5,30.28,ESE,102,0.0,5.0,59,0.00,,,0.00,VWS V14.01,2013-05-18 14:30:00,
2013-05-18 10:35:00,65.6,51.4,30.28,SSE,158,1.0,4.0,60,0.00,,,0.00,VWS V14.01,2013-05-18 14:35:00,
2013-05-18 10:41:00,65.7,51.5,30.28,SSW,200,0.0,4.0,60,0.00,,,0.00,VWS V14.01,2013-05-18 14:41:00,
2013-05-18 10:46:00,66.1,51.4,30.28,SSW,200,0.0,4.0,59,0.00,,,0.00,VWS V14.01,2013-05-18 14:46:00,
2013-05-18 10:51:00,66.4,51.2,30.28,SSW,200,0.0,4.0,58,0.00,,,0.00,VWS V14.01,2013-05-18 14:51:00,
2013-05-18 10:56:00,66.7,51.0,30.28,SSW,200,0.0,4.0,57,0.00,,,0.00,VWS V14.01,2013-05-18 14:56:00,
2013-05-18 11:01:00,66.9,51.7,30.28,SSW,200,0.0,1.0,58,0.00,,,0.00,VWS V14.01,2013-05-18 15:01:00,
2013-05-18 11:06:00,67.1,50.9,30.28,South,173,0.0,2.0,56,0.00,,,0.00,VWS V14.01,2013-05-18 15:06:00,
2013-05-18 11:11:00,67.5,50.3,30.28,South,175,0.0,2.0,54,0.00,,,0.00,VWS V14.01,2013-05-18 15:11:00,
2013-05-18 11:17:00,67.7,50.5,30.28,South,175,0.0,2.0,54,0.00,,,0.00,VWS V14.01,2013-05-18 15:17:00,
2013-05-18 11:22:00,67.9,51.6,30.28,East,100,0.0,3.0,56,0.00,,,0.00,VWS V14.01,2013-05-18 15:22:00,
2013-05-18 11:27:00,68.0,50.8,30.28,East,100,0.0,5.0,54,0.00,,,0.00,VWS V14.01,2013-05-18 15:27:00,
2013-05-18 11:32:00,68.1,49.8,30.28,SW,230,0.0,2.0,52,0.00,,,0.00,VWS V14.01,2013-05-18 15:32:00,
2013-05-18 11:37:00,68.3,48.4,30.27,SW,214,0.0,2.0,49,0.00,,,0.00,VWS V14.01,2013-05-18 15:37:00,
2013-05-18 11:42:00,68.5,49.2,30.27,SSE,158,0.0,4.0,50,0.00,,,0.00,VWS V14.01,2013-05-18 15:42:00,
2013-05-18 11:47:00,69.0,51.7,30.27,SSE,159,1.0,4.0,54,0.00,,,0.00,VWS V14.01,2013-05-18 15:47:00,
2013-05-18 11:52:00,69.3,51.5,30.27,South,169,1.0,5.0,53,0.00,,,0.00,VWS V14.01,2013-05-18 15:52:00,
2013-05-18 11:58:00,69.5,49.0,30.27,East,86,1.0,5.0,48,0.00,,,0.00,VWS V14.01,2013-05-18 15:58:00,
2013-05-18 12:03:00,69.7,50.8,30.27,South,180,2.0,2.0,51,0.00,,,0.00,VWS V14.01,2013-05-18 16:03:00,
2013-05-18 12:08:00,70.0,48.9,30.26,South,169,0.0,2.0,47,0.00,,,0.00,VWS V14.01,2013-05-18 16:08:00,
2013-05-18 12:13:00,70.2,50.2,30.26,SE,144,0.0,4.0,49,0.00,,,0.00,VWS V14.01,2013-05-18 16:13:00,
2013-05-18 12:18:00,70.3,50.8,30.26,SSE,148,0.0,4.0,50,0.00,,,0.00,VWS V14.01,2013-05-18 16:18:00,
2013-05-18 12:23:00,70.4,48.7,30.26,ESE,112,1.0,4.0,46,0.00,,,0.00,VWS V14.01,2013-05-18 16:23:00,
2013-05-18 12:28:00,70.6,50.5,30.26,West,261,0.0,4.0,49,0.00,,,0.00,VWS V14.01,2013-05-18 16:28:00,
2013-05-18 12:34:00,70.7,51.2,30.26,SSW,203,0.0,2.0,50,0.00,,,0.00,VWS V14.01,2013-05-18 16:34:00,
2013-05-18 12:39:00,70.5,51.5,30.26,SSW,207,0.0,4.0,51,0.00,,,0.00,VWS V14.01,2013-05-18 16:39:00,
2013-05-18 12:44:00,70.6,52.1,30.26,South,171,0.0,6.0,52,0.00,,,0.00,VWS V14.01,2013-05-18 16:44:00,
2013-05-18 12:49:00,70.6,51.6,30.26,SE,132,0.0,6.0,51,0.00,,,0.00,VWS V14.01,2013-05-18 16:49:00,
2013-05-18 12:54:00,70.8,52.8,30.26,SSE,148,1.0,6.0,53,0.00,,,0.00,VWS V14.01,2013-05-18 16:54:00,
2013-05-18 12:59:00,71.0,50.9,30.26,SSE,156,0.0,6.0,49,0.00,,,0.00,VWS V14.01,2013-05-18 16:59:00,
2013-05-18 13:04:00,71.1,50.4,30.26,SW,233,1.0,3.0,48,0.00,,,0.00,VWS V14.01,2013-05-18 17:04:00,
2013-05-18 13:09:00,71.1,51.0,30.26,WNW,284,4.0,4.0,49,0.00,,,0.00,VWS V14.01,2013-05-18 17:09:00,
2013-05-18 13:14:00,71.3,51.2,30.25,East,93,0.0,4.0,49,0.00,,,0.00,VWS V14.01,2013-05-18 17:14:00,
2013-05-18 13:19:00,71.5,51.9,30.25,South,175,2.0,5.0,50,0.00,,,0.00,VWS V14.01,2013-05-18 17:19:00,
2013-05-18 13:25:00,71.3,50.0,30.25,ESE,102,0.0,5.0,47,0.00,,,0.00,VWS V14.01,2013-05-18 17:25:00,
2013-05-18 13:30:00,71.3,52.8,30.25,WSW,243,0.0,5.0,52,0.00,,,0.00,VWS V14.01,2013-05-18 17:30:00,
2013-05-18 13:35:00,71.3,53.8,30.25,ESE,111,1.0,5.0,54,0.00,,,0.00,VWS V14.01,2013-05-18 17:35:00,
2013-05-18 13:40:00,71.5,52.4,30.25,NE,53,1.0,5.0,51,0.00,,,0.00,VWS V14.01,2013-05-18 17:40:00,
2013-05-18 13:45:00,71.3,50.6,30.25,East,82,4.0,5.0,48,0.00,,,0.00,VWS V14.01,2013-05-18 17:45:00,
2013-05-18 13:50:00,71.0,49.8,30.25,East,94,0.0,5.0,47,0.00,,,0.00,VWS V14.01,2013-05-18 17:50:00,
2013-05-18 13:55:00,70.9,49.7,30.25,WSW,248,0.0,5.0,47,0.00,,,0.00,VWS V14.01,2013-05-18 17:55:00,
2013-05-18 14:00:00,70.9,51.3,30.24,South,176,0.0,5.0,50,0.00,,,0.00,VWS V14.01,2013-05-18 18:00:00,
2013-05-18 14:06:00,70.9,50.2,30.24,SSW,211,0.0,2.0,48,0.00,,,0.00,VWS V14.01,2013-05-18 18:06:00,
2013-05-18 14:11:00,70.8,51.3,30.24,ENE,74,0.0,3.0,50,0.00,,,0.00,VWS V14.01,2013-05-18 18:11:00,
2013-05-18 14:16:00,70.8,50.7,30.24,South,184,1.0,4.0,49,0.00,,,0.00,VWS V14.01,2013-05-18 18:16:00,
2013-05-18 14:21:00,70.6,51.1,30.24,SW,225,0.0,6.0,50,0.00,,,0.00,VWS V14.01,2013-05-18 18:21:00,
2013-05-18 14:26:00,70.5,49.9,30.24,SE,133,0.0,6.0,48,0.00,,,0.00,VWS V14.01,2013-05-18 18:26:00,
2013-05-18 14:31:00,70.3,49.7,30.24,SE,131,0.0,0.0,48,0.00,,,0.00,VWS V14.01,2013-05-18 18:31:00,
2013-05-18 14:36:00,70.0,50.5,30.24,East,79,1.0,3.0,50,0.00,,,0.00,VWS V14.01,2013-05-18 18:36:00,
2013-05-18 14:41:00,69.6,48.5,30.24,East,79,0.0,3.0,47,0.00,,,0.00,VWS V14.01,2013-05-18 18:41:00,
2013-05-18 14:47:00,69.4,50.5,30.24,South,174,1.0,3.0,51,0.00,,,0.00,VWS V14.01,2013-05-18 18:47:00,
2013-05-18 14:52:00,69.0,50.1,30.24,SSW,192,1.0,3.0,51,0.00,,,0.00,VWS V14.01,2013-05-18 18:52:00,
2013-05-18 14:57:00,68.9,49.0,30.24,ESE,122,0.0,3.0,49,0.00,,,0.00,VWS V14.01,2013-05-18 18:57:00,
2013-05-18 15:02:00,68.9,51.1,30.23,ESE,122,0.0,0.0,53,0.00,,,0.00,VWS V14.01,2013-05-18 19:02:00,
2013-05-18 15:07:00,68.9,49.5,30.24,ENE,77,0.0,4.0,50,0.00,,,0.00,VWS V14.01,2013-05-18 19:07:00,
2013-05-18 15:12:00,68.6,50.3,30.23,ENE,77,1.0,4.0,52,0.00,,,0.00,VWS V14.01,2013-05-18 19:12:00,
2013-05-18 15:17:00,68.4,50.1,30.23,ESE,102,0.0,4.0,52,0.00,,,0.00,VWS V14.01,2013-05-18 19:17:00,
2013-05-18 15:23:00,68.0,51.2,30.24,ESE,114,0.0,4.0,55,0.00,,,0.00,VWS V14.01,2013-05-18 19:23:00,
2013-05-18 15:28:00,67.6,51.8,30.23,East,96,2.0,4.0,57,0.00,,,0.00,VWS V14.01,2013-05-18 19:28:00,
2013-05-18 15:33:00,67.0,51.3,30.24,South,180,0.0,3.0,57,0.00,,,0.00,VWS V14.01,2013-05-18 19:33:00,
2013-05-18 15:38:00,66.6,50.9,30.24,SW,226,1.0,3.0,57,0.00,,,0.00,VWS V14.01,2013-05-18 19:38:00,
2013-05-18 15:43:00,66.3,50.6,30.24,East,97,2.0,3.0,57,0.00,,,0.00,VWS V14.01,2013-05-18 19:43:00,
2013-05-18 15:48:00,66.1,50.4,30.24,SSW,205,0.0,3.0,57,0.00,,,0.00,VWS V14.01,2013-05-18 19:48:00,
2013-05-18 15:53:00,65.9,50.7,30.24,ESE,110,1.0,4.0,58,0.00,,,0.00,VWS V14.01,2013-05-18 19:53:00,
2013-05-18 15:58:00,65.9,50.7,30.24,WSW,256,0.0,5.0,58,0.00,,,0.00,VWS V14.01,2013-05-18 19:58:00,
2013-05-18 16:04:00,65.8,50.6,30.24,SSE,157,0.0,5.0,58,0.00,,,0.00,VWS V14.01,2013-05-18 20:04:00,
2013-05-18 16:09:00,65.8,51.1,30.24,WSW,248,2.0,5.0,59,0.00,,,0.00,VWS V14.01,2013-05-18 20:09:00,
2013-05-18 16:14:00,65.7,51.5,30.24,SSW,211,0.0,5.0,60,0.00,,,0.00,VWS V14.01,2013-05-18 20:14:00,
2013-05-18 16:19:00,65.6,50.4,30.24,SSW,199,4.0,5.0,58,0.00,,,0.00,VWS V14.01,2013-05-18 20:19:00,
2013-05-18 16:24:00,65.4,50.7,30.25,WSW,237,0.0,5.0,59,0.00,,,0.00,VWS V14.01,2013-05-18 20:24:00,
2013-05-18 16:29:00,65.2,50.1,30.25,SE,134,2.0,5.0,58,0.00,,,0.00,VWS V14.01,2013-05-18 20:29:00,
2013-05-18 16:34:00,65.1,50.0,30.25,SW,216,1.0,6.0,58,0.00,,,0.00,VWS V14.01,2013-05-18 20:34:00,
2013-05-18 16:40:00,65.0,51.2,30.25,ESE,109,0.0,6.0,61,0.00,,,0.00,VWS V14.01,2013-05-18 20:40:00,
2013-05-18 16:45:00,65.0,49.9,30.25,SSE,154,2.0,6.0,58,0.00,,,0.00,VWS V14.01,2013-05-18 20:45:00,
2013-05-18 16:50:00,65.0,50.8,30.25,WSW,237,2.0,6.0,60,0.00,,,0.00,VWS V14.01,2013-05-18 20:50:00,
2013-05-18 16:55:00,65.1,50.4,30.25,WSW,237,0.0,6.0,59,0.00,,,0.00,VWS V14.01,2013-05-18 20:55:00,
2013-05-18 17:00:00,64.9,49.3,30.25,SW,225,0.0,6.0,57,0.00,,,0.00,VWS V14.01,2013-05-18 21:00:00,
2013-05-18 17:05:00,64.7,49.1,30.26,South,190,0.0,4.0,57,0.00,,,0.00,VWS V14.01,2013-05-18 21:05:00,
2013-05-18 17:10:00,64.5,49.4,30.26,South,169,1.0,4.0,58,0.00,,,0.00,VWS V14.01,2013-05-18 21:10:00,
2013-05-18 17:15:00,64.4,49.3,30.26,SSW,208,1.0,5.0,58,0.00,,,0.00,VWS V14.01,2013-05-18 21:15:00,
2013-05-18 17:20:00,64.3,49.7,30.26,SSW,200,2.0,5.0,59,0.00,,,0.00,VWS V14.01,2013-05-18 21:20:00,
2013-05-18 17:26:00,64.2,49.6,30.26,SSW,212,0.0,5.0,59,0.00,,,0.00,VWS V14.01,2013-05-18 21:26:00,
2013-05-18 17:31:00,64.0,50.3,30.26,South,169,0.0,1.0,61,0.00,,,0.00,VWS V14.01,2013-05-18 21:31:00,
2013-05-18 17:36:00,63.7,50.5,30.26,South,182,0.0,9.0,62,0.00,,,0.00,VWS V14.01,2013-05-18 21:36:00,
2013-05-18 17:41:00,63.4,50.6,30.26,WSW,242,0.0,9.0,63,0.00,,,0.00,VWS V14.01,2013-05-18 21:41:00,
2013-05-18 17:46:00,63.2,50.4,30.26,SE,129,1.0,9.0,63,0.00,,,0.00,VWS V14.01,2013-05-18 21:46:00,
2013-05-18 17:51:00,62.9,50.1,30.27,WSW,247,0.0,9.0,63,0.00,,,0.00,VWS V14.01,2013-05-18 21:51:00,
2013-05-18 17:56:00,62.6,51.1,30.27,WSW,238,1.0,9.0,66,0.00,,,0.00,VWS V14.01,2013-05-18 21:56:00,
2013-05-18 18:02:00,62.3,50.0,30.27,East,80,1.0,6.0,64,0.00,,,0.00,VWS V14.01,2013-05-18 22:02:00,
2013-05-18 18:07:00,61.8,49.1,30.27,SSE,163,0.0,6.0,63,0.00,,,0.00,VWS V14.01,2013-05-18 22:07:00,
2013-05-18 18:12:00,61.5,48.8,30.27,SSW,192,1.0,6.0,63,0.00,,,0.00,VWS V14.01,2013-05-18 22:12:00,
2013-05-18 18:17:00,61.3,48.6,30.27,SW,218,0.0,7.0,63,0.00,,,0.00,VWS V14.01,2013-05-18 22:17:00,
2013-05-18 18:22:00,61.1,48.8,30.27,SSE,163,0.0,7.0,64,0.00,,,0.00,VWS V14.01,2013-05-18 22:22:00,
2013-05-18 18:27:00,61.1,49.3,30.27,SSE,165,0.0,7.0,65,0.00,,,0.00,VWS V14.01,2013-05-18 22:27:00,
2013-05-18 18:32:00,61.0,49.2,30.27,SE,139,0.0,4.0,65,0.00,,,0.00,VWS V14.01,2013-05-18 22:32:00,
2013-05-18 18:37:00,60.9,49.5,30.27,South,170,0.0,4.0,66,0.00,,,0.00,VWS V14.01,2013-05-18 22:37:00,
2013-05-18 18:43:00,60.8,49.4,30.27,ESE,122,0.0,4.0,66,0.00,,,0.00,VWS V14.01,2013-05-18 22:43:00,
2013-05-18 18:48:00,60.6,49.6,30.27,ESE,117,0.0,4.0,67,0.00,,,0.00,VWS V14.01,2013-05-18 22:48:00,
2013-05-18 18:53:00,60.4,49.4,30.27,WSW,244,0.0,4.0,67,0.00,,,0.00,VWS V14.01,2013-05-18 22:53:00,
2013-05-18 18:58:00,60.2,49.2,30.28,SW,231,0.0,4.0,67,0.00,,,0.00,VWS V14.01,2013-05-18 22:58:00,
2013-05-18 19:03:00,59.9,48.5,30.28,SW,221,0.0,2.0,66,0.00,,,0.00,VWS V14.01,2013-05-18 23:03:00,
2013-05-18 19:08:00,59.7,48.7,30.28,SE,145,0.0,2.0,67,0.00,,,0.00,VWS V14.01,2013-05-18 23:08:00,
2013-05-18 19:13:00,59.4,49.2,30.27,SE,145,0.0,2.0,69,0.00,,,0.00,VWS V14.01,2013-05-18 23:13:00,
2013-05-18 19:18:00,59.1,49.0,30.28,WSW,252,0.0,2.0,69,0.00,,,0.00,VWS V14.01,2013-05-18 23:18:00,
2013-05-18 19:23:00,58.9,49.5,30.28,SW,228,0.0,2.0,71,0.00,,,0.00,VWS V14.01,2013-05-18 23:23:00,
2013-05-18 19:29:00,58.5,49.1,30.28,SW,228,0.0,2.0,71,0.00,,,0.00,VWS V14.01,2013-05-18 23:29:00,
2013-05-18 19:34:00,58.2,49.2,30.28,SE,141,0.0,2.0,72,0.00,,,0.00,VWS V14.01,2013-05-18 23:34:00,
2013-05-18 19:39:00,57.9,49.3,30.28,SE,146,0.0,2.0,73,0.00,,,0.00,VWS V14.01,2013-05-18 23:39:00,
2013-05-18 19:44:00,57.7,49.5,30.28,SE,146,0.0,2.0,74,0.00,,,0.00,VWS V14.01,2013-05-18 23:44:00,
2013-05-18 19:49:00,57.4,49.5,30.28,SE,146,0.0,2.0,75,0.00,,,0.00,VWS V14.01,2013-05-18 23:49:00,
2013-05-18 19:54:00,57.1,49.3,30.28,SE,146,0.0,2.0,75,0.00,,,0.00,VWS V14.01,2013-05-18 23:54:00,
2013-05-18 19:59:00,56.8,49.3,30.29,SE,146,0.0,2.0,76,0.00,,,0.00,VWS V14.01,2013-05-18 23:59:00,
2013-05-18 20:05:00,56.4,49.3,30.28,SE,146,0.0,0.0,77,0.00,,,0.00,VWS V14.01,2013-05-19 00:05:00,
2013-05-18 20:10:00,56.1,49.0,30.28,SE,146,0.0,0.0,77,0.00,,,0.00,VWS V14.01,2013-05-19 00:10:00,
2013-05-18 20:15:00,55.8,49.0,30.28,SE,146,0.0,0.0,78,0.00,,,0.00,VWS V14.01,2013-05-19 00:15:00,
2013-05-18 20:20:00,55.5,49.1,30.28,SE,146,0.0,0.0,79,0.00,,,0.00,VWS V14.01,2013-05-19 00:20:00,
2013-05-18 20:25:00,55.2,49.2,30.28,SE,146,0.0,0.0,80,0.00,,,0.00,VWS V14.01,2013-05-19 00:25:00,
2013-05-18 20:30:00,54.9,48.9,30.28,SE,146,0.0,0.0,80,0.00,,,0.00,VWS V14.01,2013-05-19 00:30:00,
2013-05-18 20:35:00,54.5,48.8,30.28,SE,146,0.0,0.0,81,0.00,,,0.00,VWS V14.01,2013-05-19 00:35:00,
2013-05-18 20:40:00,54.0,49.0,30.28,SE,146,0.0,0.0,83,0.00,,,0.00,VWS V14.01,2013-05-19 00:40:00,
2013-05-18 20:45:00,53.6,48.9,30.28,SE,146,0.0,0.0,84,0.00,,,0.00,VWS V14.01,2013-05-19 00:45:00,
2013-05-18 20:51:00,53.3,48.6,30.28,SE,146,0.0,0.0,84,0.00,,,0.00,VWS V14.01,2013-05-19 00:51:00,
2013-05-18 20:56:00,53.0,48.6,30.27,SE,146,0.0,0.0,85,0.00,,,0.00,VWS V14.01,2013-05-19 00:56:00,
2013-05-18 21:01:00,52.6,48.5,30.28,SE,146,0.0,0.0,86,0.00,,,0.00,VWS V14.01,2013-05-19 01:01:00,
2013-05-18 21:06:00,52.2,48.8,30.28,SE,146,0.0,0.0,88,0.00,,,0.00,VWS V14.01,2013-05-19 01:06:00,
2013-05-18 21:11:00,51.9,48.5,30.28,SE,146,0.0,0.0,88,0.00,,,0.00,VWS V14.01,2013-05-19 01:11:00,
2013-05-18 21:16:00,51.6,48.5,30.28,SE,146,0.0,0.0,89,0.00,,,0.00,VWS V14.01,2013-05-19 01:16:00,
2013-05-18 21:21:00,51.4,48.3,30.28,SE,146,0.0,0.0,89,0.00,,,0.00,VWS V14.01,2013-05-19 01:21:00,
2013-05-18 21:27:00,51.1,48.0,30.28,SE,146,0.0,0.0,89,0.00,,,0.00,VWS V14.01,2013-05-19 01:27:00,
2013-05-18 21:32:00,50.9,48.1,30.29,SE,146,0.0,0.0,90,0.00,,,0.00,VWS V14.01,2013-05-19 01:32:00,
2013-05-18 21:37:00,50.7,48.2,30.29,SE,146,0.0,0.0,91,0.00,,,0.00,VWS V14.01,2013-05-19 01:37:00,
2013-05-18 21:42:00,50.6,48.1,30.29,SE,146,0.0,0.0,91,0.00,,,0.00,VWS V14.01,2013-05-19 01:42:00,
2013-05-18 21:47:00,50.4,47.9,30.29,SE,146,0.0,0.0,91,0.00,,,0.00,VWS V14.01,2013-05-19 01:47:00,
2013-05-18 21:52:00,50.2,47.7,30.29,SE,146,0.0,0.0,91,0.00,,,0.00,VWS V14.01,2013-05-19 01:52:00,
2013-05-18 21:57:00,50.0,48.6,30.29,SE,146,0.0,0.0,95,0.00,,,0.00,VWS V14.01,2013-05-19 01:57:00,
2013-05-18 22:02:00,50.0,47.8,30.29,SE,146,0.0,0.0,92,0.00,,,0.00,VWS V14.01,2013-05-19 02:02:00,
2013-05-18 22:07:00,50.1,48.2,30.30,SE,146,0.0,0.0,93,0.00,,,0.00,VWS V14.01,2013-05-19 02:07:00,
2013-05-18 22:13:00,50.1,48.2,30.30,SE,146,0.0,0.0,93,0.00,,,0.00,VWS V14.01,2013-05-19 02:13:00,
2013-05-18 22:18:00,50.1,48.2,30.30,SE,146,0.0,0.0,93,0.00,,,0.00,VWS V14.01,2013-05-19 02:18:00,
2013-05-18 22:23:00,50.1,48.2,30.29,SE,146,0.0,0.0,93,0.00,,,0.00,VWS V14.01,2013-05-19 02:23:00,
2013-05-18 22:28:00,50.0,48.1,30.29,SE,146,0.0,0.0,93,0.00,,,0.00,VWS V14.01,2013-05-19 02:28:00,
2013-05-18 22:33:00,49.9,48.0,30.29,SE,146,0.0,0.0,93,0.00,,,0.00,VWS V14.01,2013-05-19 02:33:00,
2013-05-18 22:38:00,49.8,47.9,30.29,SE,146,0.0,0.0,93,0.00,,,0.00,VWS V14.01,2013-05-19 02:38:00,
2013-05-18 22:43:00,49.7,47.8,30.29,SE,146,0.0,0.0,93,0.00,,,0.00,VWS V14.01,2013-05-19 02:43:00,
2013-05-18 22:48:00,49.7,47.8,30.30,SE,146,0.0,0.0,93,0.00,,,0.00,VWS V14.01,2013-05-19 02:48:00,
2013-05-18 22:53:00,49.7,48.0,30.30,SE,146,0.0,0.0,94,0.00,,,0.00,VWS V14.01,2013-05-19 02:53:00,
2013-05-18 22:58:00,49.7,48.0,30.29,SE,146,0.0,0.0,94,0.00,,,0.00,VWS V14.01,2013-05-19 02:58:00,
2013-05-18 23:04:00,49.7,48.0,30.29,SE,146,0.0,0.0,94,0.00,,,0.00,VWS V14.01,2013-05-19 03:04:00,
2013-05-18 23:09:00,49.7,48.0,30.29,SE,146,0.0,0.0,94,0.00,,,0.00,VWS V14.01,2013-05-19 03:09:00,
2013-05-18 23:14:00,49.7,48.0,30.29,SE,146,0.0,0.0,94,0.00,,,0.00,VWS V14.01,2013-05-19 03:14:00,
2013-05-18 23:19:00,49.7,48.0,30.28,SE,146,0.0,0.0,94,0.00,,,0.00,VWS V14.01,2013-05-19 03:19:00,
2013-05-18 23:24:00,49.8,48.2,30.29,SE,146,0.0,0.0,94,0.00,,,0.00,VWS V14.01,2013-05-19 03:24:00,
2013-05-18 23:29:00,49.8,48.2,30.29,SE,146,0.0,0.0,94,0.00,,,0.00,VWS V14.01,2013-05-19 03:29:00,
2013-05-18 23:34:00,49.8,48.2,30.29,SE,146,0.0,0.0,94,0.00,,,0.00,VWS V14.01,2013-05-19 03:34:00,
2013-05-18 23:40:00,49.9,48.5,30.29,SE,146,0.0,0.0,95,0.00,,,0.00,VWS V14.01,2013-05-19 03:40:00,
2013-05-18 23:45:00,50.0,48.6,30.29,SE,146,0.0,0.0,95,0.00,,,0.00,VWS V14.01,2013-05-19 03:45:00,
2013-05-18 23:50:00,50.0,48.3,30.29,SE,146,0.0,0.0,94,0.00,,,0.00,VWS V14.01,2013-05-19 03:50:00,
2013-05-18 23:55:00,49.9,48.2,30.29,SE,146,0.0,0.0,94,0.00,,,0.00,VWS V14.01,2013-05-19 03:55:00,